sensor_id;sensor_type;location;lat;lon;timestamp;pressure;altitude;pressure_sealevel;temperature;humidity
84863;BME280;75117;43.224;76.776;2024-03-08T00:00:24;92780.13;;;-3.51;83.31
84863;BME280;75117;43.224;76.776;2024-03-08T00:00:37;92782.47;;;-3.49;84.14
84863;BME280;75117;43.224;76.776;2024-03-08T00:00:50;92777.03;;;-3.53;83.71
84863;BME280;75117;43.224;76.776;2024-03-08T00:01:04;92784.25;;;-3.50;83.98
84863;BME280;75117;43.224;76.776;2024-03-08T00:01:16;92786.59;;;-3.48;83.92
84863;BME280;75117;43.224;76.776;2024-03-08T00:01:31;92780.66;;;-3.49;84.10
84863;BME280;75117;43.224;76.776;2024-03-08T00:01:44;92766.69;;;-3.58;83.63
84863;BME280;75117;43.224;76.776;2024-03-08T00:01:58;92772.38;;;-3.51;84.26
84863;BME280;75117;43.224;76.776;2024-03-08T00:02:11;92777.53;;;-3.51;84.47
84863;BME280;75117;43.224;76.776;2024-03-08T00:02:25;92785.03;;;-3.49;83.96
84863;BME280;75117;43.224;76.776;2024-03-08T00:02:39;92782.47;;;-3.49;83.82
84863;BME280;75117;43.224;76.776;2024-03-08T00:02:52;92790.19;;;-3.49;83.38
84863;BME280;75117;43.224;76.776;2024-03-08T00:03:06;92802.28;;;-3.50;83.31
84863;BME280;75117;43.224;76.776;2024-03-08T00:03:19;92775.72;;;-3.55;84.34
84863;BME280;75117;43.224;76.776;2024-03-08T00:03:32;92759.16;;;-3.70;83.98
84863;BME280;75117;43.224;76.776;2024-03-08T00:03:45;92774.94;;;-3.56;83.25
84863;BME280;75117;43.224;76.776;2024-03-08T00:03:58;92781.91;;;-3.51;83.57
84863;BME280;75117;43.224;76.776;2024-03-08T00:04:11;92792.50;;;-3.53;83.40
84863;BME280;75117;43.224;76.776;2024-03-08T00:04:24;92785.53;;;-3.52;84.23
84863;BME280;75117;43.224;76.776;2024-03-08T00:04:37;92797.41;;;-3.51;83.69
84863;BME280;75117;43.224;76.776;2024-03-08T00:04:50;92786.31;;;-3.52;84.20
84863;BME280;75117;43.224;76.776;2024-03-08T00:05:07;92782.19;;;-3.53;83.16
84863;BME280;75117;43.224;76.776;2024-03-08T00:05:23;92789.41;;;-3.50;84.18
84863;BME280;75117;43.224;76.776;2024-03-08T00:05:36;92756.59;;;-3.70;83.92
84863;BME280;75117;43.224;76.776;2024-03-08T00:05:53;92759.16;;;-3.70;84.22
84863;BME280;75117;43.224;76.776;2024-03-08T00:06:07;92791.97;;;-3.50;84.56
84863;BME280;75117;43.224;76.776;2024-03-08T00:06:20;92773.41;;;-3.57;84.22
84863;BME280;75117;43.224;76.776;2024-03-08T00:06:33;92788.41;;;-3.49;84.67
84863;BME280;75117;43.224;76.776;2024-03-08T00:06:46;92783.47;;;-3.50;84.49
84863;BME280;75117;43.224;76.776;2024-03-08T00:07:00;92794.06;;;-3.47;85.02
84863;BME280;75117;43.224;76.776;2024-03-08T00:07:13;92791.75;;;-3.48;84.52
84863;BME280;75117;43.224;76.776;2024-03-08T00:07:26;92787.63;;;-3.49;84.23
84863;BME280;75117;43.224;76.776;2024-03-08T00:07:40;92780.63;;;-3.54;84.16
84863;BME280;75117;43.224;76.776;2024-03-08T00:07:53;92790.72;;;-3.47;84.03
84863;BME280;75117;43.224;76.776;2024-03-08T00:08:07;92786.81;;;-3.50;84.47
84863;BME280;75117;43.224;76.776;2024-03-08T00:08:22;92793.56;;;-3.49;84.08
84863;BME280;75117;43.224;76.776;2024-03-08T00:08:35;92791.97;;;-3.50;84.15
84863;BME280;75117;43.224;76.776;2024-03-08T00:08:48;92791.97;;;-3.50;83.82
84863;BME280;75117;43.224;76.776;2024-03-08T00:09:00;92785.00;;;-3.54;83.71
84863;BME280;75117;43.224;76.776;2024-03-08T00:09:14;92791.47;;;-3.52;83.10
84863;BME280;75117;43.224;76.776;2024-03-08T00:09:28;92797.41;;;-3.51;84.39
84863;BME280;75117;43.224;76.776;2024-03-08T00:09:43;92790.41;;;-3.56;84.72
84863;BME280;75117;43.224;76.776;2024-03-08T00:09:55;92795.84;;;-3.52;84.06
84863;BME280;75117;43.224;76.776;2024-03-08T00:10:11;92786.56;;;-3.53;83.65
84863;BME280;75117;43.224;76.776;2024-03-08T00:10:24;92784.47;;;-3.62;83.74
84863;BME280;75117;43.224;76.776;2024-03-08T00:10:37;92790.69;;;-3.58;83.64
84863;BME280;75117;43.224;76.776;2024-03-08T00:10:51;92789.66;;;-3.57;83.67
84863;BME280;75117;43.224;76.776;2024-03-08T00:11:04;92795.56;;;-3.56;84.92
84863;BME280;75117;43.224;76.776;2024-03-08T00:11:16;92790.16;;;-3.60;84.22
84863;BME280;75117;43.224;76.776;2024-03-08T00:11:29;92789.13;;;-3.59;84.20
84863;BME280;75117;43.224;76.776;2024-03-08T00:11:43;92780.38;;;-3.58;84.16
84863;BME280;75117;43.224;76.776;2024-03-08T00:11:56;92788.63;;;-3.55;84.00
84863;BME280;75117;43.224;76.776;2024-03-08T00:12:09;92788.09;;;-3.58;84.24
84863;BME280;75117;43.224;76.776;2024-03-08T00:12:22;92793.78;;;-3.55;84.10
84863;BME280;75117;43.224;76.776;2024-03-08T00:12:35;92792.50;;;-3.58;84.43
84863;BME280;75117;43.224;76.776;2024-03-08T00:12:47;92801.78;;;-3.57;84.24
84863;BME280;75117;43.224;76.776;2024-03-08T00:13:00;92788.88;;;-3.57;84.14
84863;BME280;75117;43.224;76.776;2024-03-08T00:13:16;92788.34;;;-3.59;83.94
84863;BME280;75117;43.224;76.776;2024-03-08T00:13:29;92790.69;;;-3.58;84.15
84863;BME280;75117;43.224;76.776;2024-03-08T00:13:42;92799.19;;;-3.57;84.01
84863;BME280;75117;43.224;76.776;2024-03-08T00:13:55;92792.22;;;-3.62;84.32
84863;BME280;75117;43.224;76.776;2024-03-08T00:14:08;92795.06;;;-3.58;85.43
84863;BME280;75117;43.224;76.776;2024-03-08T00:14:21;92795.84;;;-3.58;84.27
84863;BME280;75117;43.224;76.776;2024-03-08T00:14:35;92785.25;;;-3.61;84.84
84863;BME280;75117;43.224;76.776;2024-03-08T00:14:49;92802.81;;;-3.58;84.16
84863;BME280;75117;43.224;76.776;2024-03-08T00:15:02;92784.75;;;-3.63;84.97
84863;BME280;75117;43.224;76.776;2024-03-08T00:15:16;92791.72;;;-3.59;84.13
84863;BME280;75117;43.224;76.776;2024-03-08T00:15:29;92787.34;;;-3.58;85.05
84863;BME280;75117;43.224;76.776;2024-03-08T00:15:41;92798.41;;;-3.58;84.99
84863;BME280;75117;43.224;76.776;2024-03-08T00:15:54;92799.19;;;-3.57;84.25
84863;BME280;75117;43.224;76.776;2024-03-08T00:16:10;92793.25;;;-3.58;83.93
84863;BME280;75117;43.224;76.776;2024-03-08T00:16:23;92778.00;;;-3.69;84.48
84863;BME280;75117;43.224;76.776;2024-03-08T00:16:36;92788.34;;;-3.59;84.31
84863;BME280;75117;43.224;76.776;2024-03-08T00:16:49;92795.06;;;-3.58;84.96
84863;BME280;75117;43.224;76.776;2024-03-08T00:17:02;92749.84;;;-3.81;84.56
84863;BME280;75117;43.224;76.776;2024-03-08T00:17:15;92799.19;;;-3.57;84.99
84863;BME280;75117;43.224;76.776;2024-03-08T00:17:29;92788.09;;;-3.58;85.26
84863;BME280;75117;43.224;76.776;2024-03-08T00:17:43;92795.06;;;-3.58;84.97
84863;BME280;75117;43.224;76.776;2024-03-08T00:17:56;92790.69;;;-3.58;84.75
84863;BME280;75117;43.224;76.776;2024-03-08T00:18:09;92797.66;;;-3.58;84.90
84863;BME280;75117;43.224;76.776;2024-03-08T00:18:23;92789.38;;;-3.60;85.00
84863;BME280;75117;43.224;76.776;2024-03-08T00:18:36;92790.91;;;-3.59;83.98
84863;BME280;75117;43.224;76.776;2024-03-08T00:18:49;92761.44;;;-3.78;84.91
84863;BME280;75117;43.224;76.776;2024-03-08T00:19:02;92787.81;;;-3.61;84.37
84863;BME280;75117;43.224;76.776;2024-03-08T00:19:15;92783.69;;;-3.62;84.65
84863;BME280;75117;43.224;76.776;2024-03-08T00:19:29;92794.50;;;-3.65;84.35
84863;BME280;75117;43.224;76.776;2024-03-08T00:19:42;92792.72;;;-3.65;85.32
84863;BME280;75117;43.224;76.776;2024-03-08T00:19:56;92763.75;;;-3.82;84.20
84863;BME280;75117;43.224;76.776;2024-03-08T00:20:10;92784.19;;;-3.70;84.34
84863;BME280;75117;43.224;76.776;2024-03-08T00:20:23;92792.19;;;-3.67;84.52
84863;BME280;75117;43.224;76.776;2024-03-08T00:20:37;92795.28;;;-3.70;85.15
84863;BME280;75117;43.224;76.776;2024-03-08T00:20:50;92784.44;;;-3.72;84.97
84863;BME280;75117;43.224;76.776;2024-03-08T00:21:03;92787.53;;;-3.70;84.40
84863;BME280;75117;43.224;76.776;2024-03-08T00:21:17;92784.19;;;-3.70;85.06
84863;BME280;75117;43.224;76.776;2024-03-08T00:21:30;92788.28;;;-3.74;84.33
84863;BME280;75117;43.224;76.776;2024-03-08T00:21:43;92791.16;;;-3.71;84.35
84863;BME280;75117;43.224;76.776;2024-03-08T00:21:57;92793.72;;;-3.71;85.85
84863;BME280;75117;43.224;76.776;2024-03-08T00:22:10;92794.75;;;-3.72;85.43
84863;BME280;75117;43.224;76.776;2024-03-08T00:22:24;92789.59;;;-3.72;84.83
84863;BME280;75117;43.224;76.776;2024-03-08T00:22:38;92792.94;;;-3.71;86.39
84863;BME280;75117;43.224;76.776;2024-03-08T00:22:51;92789.84;;;-3.73;85.52
84863;BME280;75117;43.224;76.776;2024-03-08T00:23:04;92784.44;;;-3.77;84.36
84863;BME280;75117;43.224;76.776;2024-03-08T00:23:17;92787.03;;;-3.72;85.58
84863;BME280;75117;43.224;76.776;2024-03-08T00:23:30;92789.84;;;-3.73;85.00
84863;BME280;75117;43.224;76.776;2024-03-08T00:23:45;92778.25;;;-3.76;84.87
84863;BME280;75117;43.224;76.776;2024-03-08T00:23:59;92795.00;;;-3.73;86.13
84863;BME280;75117;43.224;76.776;2024-03-08T00:24:12;92785.44;;;-3.78;85.99
84863;BME280;75117;43.224;76.776;2024-03-08T00:24:25;92796.31;;;-3.71;85.62
84863;BME280;75117;43.224;76.776;2024-03-08T00:24:39;92792.94;;;-3.71;85.70
84863;BME280;75117;43.224;76.776;2024-03-08T00:24:52;92791.66;;;-3.69;85.65
84863;BME280;75117;43.224;76.776;2024-03-08T00:25:06;92792.69;;;-3.70;85.73
84863;BME280;75117;43.224;76.776;2024-03-08T00:25:24;92793.47;;;-3.69;86.64
84863;BME280;75117;43.224;76.776;2024-03-08T00:25:37;92792.69;;;-3.70;85.51
84863;BME280;75117;43.224;76.776;2024-03-08T00:25:51;92778.72;;;-3.79;85.25
84863;BME280;75117;43.224;76.776;2024-03-08T00:26:04;92795.53;;;-3.66;86.27
84863;BME280;75117;43.224;76.776;2024-03-08T00:26:19;92791.16;;;-3.66;86.17
84863;BME280;75117;43.224;76.776;2024-03-08T00:26:32;92787.53;;;-3.70;85.89
84863;BME280;75117;43.224;76.776;2024-03-08T00:26:45;92796.31;;;-3.66;85.77
84863;BME280;75117;43.224;76.776;2024-03-08T00:26:59;92785.72;;;-3.69;86.44
84863;BME280;75117;43.224;76.776;2024-03-08T00:27:12;92800.72;;;-3.61;85.49
84863;BME280;75117;43.224;76.776;2024-03-08T00:27:25;92805.09;;;-3.62;86.30
84863;BME280;75117;43.224;76.776;2024-03-08T00:27:38;92800.47;;;-3.60;86.86
84863;BME280;75117;43.224;76.776;2024-03-08T00:27:51;92794.28;;;-3.59;86.49
84863;BME280;75117;43.224;76.776;2024-03-08T00:28:08;92806.16;;;-3.58;86.17
84863;BME280;75117;43.224;76.776;2024-03-08T00:28:21;92795.56;;;-3.61;86.09
84863;BME280;75117;43.224;76.776;2024-03-08T00:28:34;92794.03;;;-3.57;86.76
84863;BME280;75117;43.224;76.776;2024-03-08T00:28:48;92763.00;;;-3.77;85.76
84863;BME280;75117;43.224;76.776;2024-03-08T00:29:01;92788.34;;;-3.59;85.45
84863;BME280;75117;43.224;76.776;2024-03-08T00:29:15;92789.66;;;-3.57;86.08
84863;BME280;75117;43.224;76.776;2024-03-08T00:29:28;92791.72;;;-3.59;86.04
84863;BME280;75117;43.224;76.776;2024-03-08T00:29:41;92789.66;;;-3.57;85.39
84863;BME280;75117;43.224;76.776;2024-03-08T00:29:55;92789.66;;;-3.57;86.16
84863;BME280;75117;43.224;76.776;2024-03-08T00:30:08;92792.22;;;-3.57;85.35
84863;BME280;75117;43.224;76.776;2024-03-08T00:30:22;92786.28;;;-3.57;86.51
84863;BME280;75117;43.224;76.776;2024-03-08T00:30:36;92783.94;;;-3.64;85.52
84863;BME280;75117;43.224;76.776;2024-03-08T00:30:50;92792.72;;;-3.60;86.47
84863;BME280;75117;43.224;76.776;2024-03-08T00:31:03;92803.03;;;-3.60;85.42
84863;BME280;75117;43.224;76.776;2024-03-08T00:31:16;92790.69;;;-3.58;85.69
84863;BME280;75117;43.224;76.776;2024-03-08T00:31:30;92778.00;;;-3.64;85.66
84863;BME280;75117;43.224;76.776;2024-03-08T00:31:46;92781.63;;;-3.60;85.65
84863;BME280;75117;43.224;76.776;2024-03-08T00:31:59;92793.25;;;-3.58;85.47
84863;BME280;75117;43.224;76.776;2024-03-08T00:32:12;92788.88;;;-3.57;85.33
84863;BME280;75117;43.224;76.776;2024-03-08T00:32:25;92790.41;;;-3.56;86.04
84863;BME280;75117;43.224;76.776;2024-03-08T00:32:39;92791.19;;;-3.55;86.06
84863;BME280;75117;43.224;76.776;2024-03-08T00:32:53;92798.69;;;-3.54;85.32
84863;BME280;75117;43.224;76.776;2024-03-08T00:33:06;92771.28;;;-3.70;84.96
84863;BME280;75117;43.224;76.776;2024-03-08T00:33:20;92787.84;;;-3.56;86.06
84863;BME280;75117;43.224;76.776;2024-03-08T00:33:33;92798.41;;;-3.58;85.26
84863;BME280;75117;43.224;76.776;2024-03-08T00:33:46;92786.03;;;-3.55;85.26
84863;BME280;75117;43.224;76.776;2024-03-08T00:34:00;92790.41;;;-3.56;85.50
84863;BME280;75117;43.224;76.776;2024-03-08T00:34:13;92797.66;;;-3.58;86.23
84863;BME280;75117;43.224;76.776;2024-03-08T00:34:26;92791.97;;;-3.55;84.98
84863;BME280;75117;43.224;76.776;2024-03-08T00:34:39;92794.31;;;-3.53;85.13
84863;BME280;75117;43.224;76.776;2024-03-08T00:34:53;92764.03;;;-3.73;85.22
84863;BME280;75117;43.224;76.776;2024-03-08T00:35:09;92795.09;;;-3.53;85.23
84863;BME280;75117;43.224;76.776;2024-03-08T00:35:23;92794.31;;;-3.53;85.58
84863;BME280;75117;43.224;76.776;2024-03-08T00:35:37;92795.09;;;-3.53;85.61
84863;BME280;75117;43.224;76.776;2024-03-08T00:35:50;92793.00;;;-3.51;84.86
84863;BME280;75117;43.224;76.776;2024-03-08T00:36:03;92793.00;;;-3.51;86.31
84863;BME280;75117;43.224;76.776;2024-03-08T00:36:16;92796.38;;;-3.50;85.50
84863;BME280;75117;43.224;76.776;2024-03-08T00:36:29;92784.22;;;-3.60;85.86
84863;BME280;75117;43.224;76.776;2024-03-08T00:36:42;92798.72;;;-3.49;85.26
84863;BME280;75117;43.224;76.776;2024-03-08T00:36:56;92792.78;;;-3.49;85.79
84863;BME280;75117;43.224;76.776;2024-03-08T00:37:09;92791.22;;;-3.50;86.16
84863;BME280;75117;43.224;76.776;2024-03-08T00:37:23;92791.97;;;-3.50;86.34
84863;BME280;75117;43.224;76.776;2024-03-08T00:37:36;92798.16;;;-3.51;85.48
84863;BME280;75117;43.224;76.776;2024-03-08T00:37:49;92796.13;;;-3.49;85.63
84863;BME280;75117;43.224;76.776;2024-03-08T00:38:03;92787.63;;;-3.49;85.91
84863;BME280;75117;43.224;76.776;2024-03-08T00:38:16;92795.34;;;-3.49;85.29
84863;BME280;75117;43.224;76.776;2024-03-08T00:38:31;92770.03;;;-3.68;85.49
84863;BME280;75117;43.224;76.776;2024-03-08T00:38:44;92787.34;;;-3.53;85.98
84863;BME280;75117;43.224;76.776;2024-03-08T00:38:57;92787.34;;;-3.53;85.24
84863;BME280;75117;43.224;76.776;2024-03-08T00:39:12;92799.22;;;-3.47;84.64
84863;BME280;75117;43.224;76.776;2024-03-08T00:39:25;92794.31;;;-3.48;85.88
84863;BME280;75117;43.224;76.776;2024-03-08T00:39:38;92794.31;;;-3.48;84.78
84863;BME280;75117;43.224;76.776;2024-03-08T00:39:52;92803.59;;;-3.47;85.27
84863;BME280;75117;43.224;76.776;2024-03-08T00:40:05;92796.13;;;-3.49;85.13
84863;BME280;75117;43.224;76.776;2024-03-08T00:40:21;92769.50;;;-3.65;85.38
84863;BME280;75117;43.224;76.776;2024-03-08T00:40:35;92765.88;;;-3.64;85.47
84863;BME280;75117;43.224;76.776;2024-03-08T00:40:48;92793.56;;;-3.49;84.84
84863;BME280;75117;43.224;76.776;2024-03-08T00:41:01;92792.25;;;-3.46;85.50
84863;BME280;75117;43.224;76.776;2024-03-08T00:41:14;92786.81;;;-3.50;85.16
84863;BME280;75117;43.224;76.776;2024-03-08T00:41:28;92765.09;;;-3.64;85.85
84863;BME280;75117;43.224;76.776;2024-03-08T00:41:41;92787.88;;;-3.46;86.27
84863;BME280;75117;43.224;76.776;2024-03-08T00:41:57;92794.31;;;-3.48;86.20
84863;BME280;75117;43.224;76.776;2024-03-08T00:42:10;92792.25;;;-3.46;85.88
84863;BME280;75117;43.224;76.776;2024-03-08T00:42:23;92789.41;;;-3.50;85.31
84863;BME280;75117;43.224;76.776;2024-03-08T00:42:36;92790.19;;;-3.49;85.02
84863;BME280;75117;43.224;76.776;2024-03-08T00:42:51;92787.63;;;-3.49;85.88
84863;BME280;75117;43.224;76.776;2024-03-08T00:43:06;92785.53;;;-3.52;85.55
84863;BME280;75117;43.224;76.776;2024-03-08T00:43:19;92793.28;;;-3.52;84.74
84863;BME280;75117;43.224;76.776;2024-03-08T00:43:32;92782.94;;;-3.58;85.64
84863;BME280;75117;43.224;76.776;2024-03-08T00:43:45;92790.16;;;-3.54;85.48
84863;BME280;75117;43.224;76.776;2024-03-08T00:44:00;92797.13;;;-3.55;84.77
84863;BME280;75117;43.224;76.776;2024-03-08T00:44:13;92793.78;;;-3.55;84.87
84863;BME280;75117;43.224;76.776;2024-03-08T00:44:26;92793.25;;;-3.58;84.60
84863;BME280;75117;43.224;76.776;2024-03-08T00:44:39;92786.78;;;-3.60;85.81
84863;BME280;75117;43.224;76.776;2024-03-08T00:44:52;92789.91;;;-3.58;84.42
84863;BME280;75117;43.224;76.776;2024-03-08T00:45:06;92785.75;;;-3.59;85.10
84863;BME280;75117;43.224;76.776;2024-03-08T00:45:19;92795.31;;;-3.60;85.60
84863;BME280;75117;43.224;76.776;2024-03-08T00:45:32;92793.50;;;-3.59;85.02
84863;BME280;75117;43.224;76.776;2024-03-08T00:45:45;92801.50;;;-3.61;85.33
84863;BME280;75117;43.224;76.776;2024-03-08T00:45:58;92785.75;;;-3.64;85.34
84863;BME280;75117;43.224;76.776;2024-03-08T00:46:13;92795.31;;;-3.60;85.34
84863;BME280;75117;43.224;76.776;2024-03-08T00:46:27;92791.94;;;-3.60;85.20
84863;BME280;75117;43.224;76.776;2024-03-08T00:46:41;92794.28;;;-3.59;85.23
84863;BME280;75117;43.224;76.776;2024-03-08T00:46:55;92797.66;;;-3.58;84.55
84863;BME280;75117;43.224;76.776;2024-03-08T00:47:09;92790.91;;;-3.59;84.69
84863;BME280;75117;43.224;76.776;2024-03-08T00:47:22;92792.72;;;-3.60;85.29
84863;BME280;75117;43.224;76.776;2024-03-08T00:47:35;92794.81;;;-3.57;86.13
84863;BME280;75117;43.224;76.776;2024-03-08T00:47:48;92805.38;;;-3.58;85.00
84863;BME280;75117;43.224;76.776;2024-03-08T00:48:01;92777.50;;;-3.66;85.81
84863;BME280;75117;43.224;76.776;2024-03-08T00:48:14;92807.69;;;-3.57;86.12
84863;BME280;75117;43.224;76.776;2024-03-08T00:48:27;92794.81;;;-3.57;86.02
84863;BME280;75117;43.224;76.776;2024-03-08T00:48:40;92777.22;;;-3.70;85.15
84863;BME280;75117;43.224;76.776;2024-03-08T00:48:55;92796.34;;;-3.55;85.39
84863;BME280;75117;43.224;76.776;2024-03-08T00:49:09;92791.72;;;-3.59;85.69
84863;BME280;75117;43.224;76.776;2024-03-08T00:49:22;92787.84;;;-3.56;85.84
84863;BME280;75117;43.224;76.776;2024-03-08T00:49:36;92792.22;;;-3.57;85.67
84863;BME280;75117;43.224;76.776;2024-03-08T00:49:52;92776.47;;;-3.65;85.42
84863;BME280;75117;43.224;76.776;2024-03-08T00:50:06;92787.06;;;-3.57;84.97
84863;BME280;75117;43.224;76.776;2024-03-08T00:50:20;92794.53;;;-3.55;85.20
84863;BME280;75117;43.224;76.776;2024-03-08T00:50:33;92789.13;;;-3.59;86.19
84863;BME280;75117;43.224;76.776;2024-03-08T00:50:46;92806.66;;;-3.55;86.25
84863;BME280;75117;43.224;76.776;2024-03-08T00:51:00;92804.88;;;-3.55;84.96
84863;BME280;75117;43.224;76.776;2024-03-08T00:51:14;92794.53;;;-3.55;86.16
84863;BME280;75117;43.224;76.776;2024-03-08T00:51:30;92793.53;;;-3.54;85.82
84863;BME280;75117;43.224;76.776;2024-03-08T00:51:43;92774.38;;;-3.68;85.85
84863;BME280;75117;43.224;76.776;2024-03-08T00:51:56;92781.88;;;-3.67;85.70
84863;BME280;75117;43.224;76.776;2024-03-08T00:52:10;92798.69;;;-3.54;85.51
84863;BME280;75117;43.224;76.776;2024-03-08T00:52:23;92801.00;;;-3.52;85.61
84863;BME280;75117;43.224;76.776;2024-03-08T00:52:37;92799.22;;;-3.52;85.96
84863;BME280;75117;43.224;76.776;2024-03-08T00:52:50;92796.63;;;-3.52;85.58
84863;BME280;75117;43.224;76.776;2024-03-08T00:53:03;92799.97;;;-3.51;86.38
84863;BME280;75117;43.224;76.776;2024-03-08T00:53:17;92782.66;;;-3.61;86.35
84863;BME280;75117;43.224;76.776;2024-03-08T00:53:30;92782.94;;;-3.63;85.42
84863;BME280;75117;43.224;76.776;2024-03-08T00:53:43;92796.88;;;-3.53;85.46
84863;BME280;75117;43.224;76.776;2024-03-08T00:53:56;92789.16;;;-3.53;85.69
84863;BME280;75117;43.224;76.776;2024-03-08T00:54:09;92773.09;;;-3.71;86.17
84863;BME280;75117;43.224;76.776;2024-03-08T00:54:23;92797.13;;;-3.55;85.58
84863;BME280;75117;43.224;76.776;2024-03-08T00:54:36;92805.13;;;-3.57;84.77
84863;BME280;75117;43.224;76.776;2024-03-08T00:54:49;92814.66;;;-3.57;85.29
84863;BME280;75117;43.224;76.776;2024-03-08T00:55:02;92772.53;;;-3.78;85.53
84863;BME280;75117;43.224;76.776;2024-03-08T00:55:16;92800.72;;;-3.61;85.18
84863;BME280;75117;43.224;76.776;2024-03-08T00:55:30;92801.47;;;-3.66;85.26
84863;BME280;75117;43.224;76.776;2024-03-08T00:55:43;92800.72;;;-3.61;85.02
84863;BME280;75117;43.224;76.776;2024-03-08T00:55:58;92801.47;;;-3.66;86.01
84863;BME280;75117;43.224;76.776;2024-03-08T00:56:11;92801.47;;;-3.66;85.77
84863;BME280;75117;43.224;76.776;2024-03-08T00:56:24;92807.16;;;-3.64;85.31
84863;BME280;75117;43.224;76.776;2024-03-08T00:56:37;92789.84;;;-3.73;85.21
84863;BME280;75117;43.224;76.776;2024-03-08T00:56:51;92800.72;;;-3.66;85.24
84863;BME280;75117;43.224;76.776;2024-03-08T00:57:04;92798.13;;;-3.66;86.17
84863;BME280;75117;43.224;76.776;2024-03-08T00:57:19;92773.00;;;-3.86;86.51
84863;BME280;75117;43.224;76.776;2024-03-08T00:57:32;92789.59;;;-3.72;86.25
84863;BME280;75117;43.224;76.776;2024-03-08T00:57:46;92799.94;;;-3.67;85.77
84863;BME280;75117;43.224;76.776;2024-03-08T00:57:59;92800.72;;;-3.66;86.46
84863;BME280;75117;43.224;76.776;2024-03-08T00:58:13;92811.03;;;-3.66;85.80
84863;BME280;75117;43.224;76.776;2024-03-08T00:58:26;92797.34;;;-3.72;86.31
84863;BME280;75117;43.224;76.776;2024-03-08T00:58:40;92807.41;;;-3.65;86.32
84863;BME280;75117;43.224;76.776;2024-03-08T00:58:54;92804.84;;;-3.65;86.13
84863;BME280;75117;43.224;76.776;2024-03-08T00:59:07;92803.28;;;-3.66;85.62
84863;BME280;75117;43.224;76.776;2024-03-08T00:59:20;92762.19;;;-3.88;85.81
84863;BME280;75117;43.224;76.776;2024-03-08T00:59:33;92802.00;;;-3.64;86.04
84863;BME280;75117;43.224;76.776;2024-03-08T00:59:46;92802.78;;;-3.63;86.38
84863;BME280;75117;43.224;76.776;2024-03-08T01:00:03;92798.13;;;-3.66;85.68
84863;BME280;75117;43.224;76.776;2024-03-08T01:00:18;92798.41;;;-3.63;86.21
84863;BME280;75117;43.224;76.776;2024-03-08T01:00:33;92797.09;;;-3.65;86.17
84863;BME280;75117;43.224;76.776;2024-03-08T01:00:46;92800.97;;;-3.63;85.37
84863;BME280;75117;43.224;76.776;2024-03-08T01:00:59;92804.06;;;-3.61;85.34
84863;BME280;75117;43.224;76.776;2024-03-08T01:01:15;92793.75;;;-3.66;85.75
84863;BME280;75117;43.224;76.776;2024-03-08T01:01:28;92812.59;;;-3.60;85.31
84863;BME280;75117;43.224;76.776;2024-03-08T01:01:42;92799.41;;;-3.64;86.91
84863;BME280;75117;43.224;76.776;2024-03-08T01:01:56;92802.25;;;-3.60;85.96
84863;BME280;75117;43.224;76.776;2024-03-08T01:02:10;92776.44;;;-3.75;86.61
84863;BME280;75117;43.224;76.776;2024-03-08T01:02:23;92804.34;;;-3.57;86.22
84863;BME280;75117;43.224;76.776;2024-03-08T01:02:36;92798.41;;;-3.58;86.05
84863;BME280;75117;43.224;76.776;2024-03-08T01:02:50;92796.06;;;-3.59;85.64
84863;BME280;75117;43.224;76.776;2024-03-08T01:03:03;92798.94;;;-3.55;85.82
84863;BME280;75117;43.224;76.776;2024-03-08T01:03:16;92794.81;;;-3.57;86.20
84863;BME280;75117;43.224;76.776;2024-03-08T01:03:29;92806.44;;;-3.54;85.75
84863;BME280;75117;43.224;76.776;2024-03-08T01:03:44;92799.69;;;-3.55;86.55
84863;BME280;75117;43.224;76.776;2024-03-08T01:03:57;92797.13;;;-3.55;85.67
84863;BME280;75117;43.224;76.776;2024-03-08T01:04:11;92798.69;;;-3.54;86.44
84863;BME280;75117;43.224;76.776;2024-03-08T01:04:24;92793.25;;;-3.58;86.70
84863;BME280;75117;43.224;76.776;2024-03-08T01:04:38;92800.25;;;-3.53;86.12
84863;BME280;75117;43.224;76.776;2024-03-08T01:04:51;92765.84;;;-3.79;85.72
84863;BME280;75117;43.224;76.776;2024-03-08T01:05:05;92800.75;;;-3.51;85.79
84863;BME280;75117;43.224;76.776;2024-03-08T01:05:20;92808.75;;;-3.52;86.24
84863;BME280;75117;43.224;76.776;2024-03-08T01:05:33;92800.75;;;-3.51;86.05
84863;BME280;75117;43.224;76.776;2024-03-08T01:05:47;92797.94;;;-3.49;85.00
84863;BME280;75117;43.224;76.776;2024-03-08T01:06:00;92800.53;;;-3.49;85.87
84863;BME280;75117;43.224;76.776;2024-03-08T01:06:14;92803.88;;;-3.49;85.64
84863;BME280;75117;43.224;76.776;2024-03-08T01:06:27;92803.88;;;-3.49;86.65
84863;BME280;75117;43.224;76.776;2024-03-08T01:06:40;92807.22;;;-3.48;85.57
84863;BME280;75117;43.224;76.776;2024-03-08T01:06:59;92805.69;;;-3.49;86.67
84863;BME280;75117;43.224;76.776;2024-03-08T01:07:12;92804.88;;;-3.50;85.77
84863;BME280;75117;43.224;76.776;2024-03-08T01:07:25;92803.34;;;-3.51;84.90
84863;BME280;75117;43.224;76.776;2024-03-08T01:07:38;92803.84;;;-3.54;85.36
84863;BME280;75117;43.224;76.776;2024-03-08T01:07:51;92762.00;;;-3.76;85.59
84863;BME280;75117;43.224;76.776;2024-03-08T01:08:05;92794.53;;;-3.55;85.73
84863;BME280;75117;43.224;76.776;2024-03-08T01:08:18;92806.69;;;-3.50;85.35
84863;BME280;75117;43.224;76.776;2024-03-08T01:08:31;92799.22;;;-3.52;85.04
84863;BME280;75117;43.224;76.776;2024-03-08T01:08:45;92783.69;;;-3.67;85.67
84863;BME280;75117;43.224;76.776;2024-03-08T01:08:58;92798.69;;;-3.54;85.26
84863;BME280;75117;43.224;76.776;2024-03-08T01:09:11;92808.50;;;-3.51;86.06
84863;BME280;75117;43.224;76.776;2024-03-08T01:09:25;92819.34;;;-3.49;85.12
84863;BME280;75117;43.224;76.776;2024-03-08T01:09:39;92783.91;;;-3.69;85.10
84863;BME280;75117;43.224;76.776;2024-03-08T01:09:52;92806.69;;;-3.50;85.88
84863;BME280;75117;43.224;76.776;2024-03-08T01:10:06;92811.84;;;-3.50;84.94
84863;BME280;75117;43.224;76.776;2024-03-08T01:10:22;92792.19;;;-3.67;84.97
84863;BME280;75117;43.224;76.776;2024-03-08T01:10:35;92808.50;;;-3.51;85.06
84863;BME280;75117;43.224;76.776;2024-03-08T01:10:49;92805.69;;;-3.49;85.31
84863;BME280;75117;43.224;76.776;2024-03-08T01:11:03;92804.09;;;-3.50;84.96
84863;BME280;75117;43.224;76.776;2024-03-08T01:11:17;92807.72;;;-3.51;85.18